createdAt,value
2023-02-16T00:00:47.537Z,6.01
2023-02-16T00:01:47.496Z,5.93
2023-02-16T00:02:47.517Z,6.04
2023-02-16T00:03:47.468Z,6.02
2023-02-16T00:04:47.381Z,6.05
2023-02-16T00:05:47.338Z,5.99
2023-02-16T00:06:47.310Z,6.01
2023-02-16T00:07:47.276Z,6.05
2023-02-16T00:08:47.232Z,5.97
2023-02-16T00:09:47.180Z,6.02
2023-02-16T00:10:47.179Z,5.87
2023-02-16T00:11:47.104Z,5.93
2023-02-16T00:12:47.071Z,5.89
2023-02-16T00:13:47.040Z,5.87
2023-02-16T00:14:46.993Z,5.84
2023-02-16T00:15:46.991Z,5.91
2023-02-16T00:16:46.917Z,5.83
2023-02-16T00:17:46.878Z,5.87
2023-02-16T00:18:46.839Z,5.83
2023-02-16T00:19:46.795Z,5.75
2023-02-16T00:20:46.773Z,5.79
2023-02-16T00:21:46.722Z,5.76
2023-02-16T00:22:46.691Z,5.84
2023-02-16T00:23:46.640Z,5.79
2023-02-16T00:24:46.608Z,5.82
2023-02-16T00:25:46.570Z,5.79
2023-02-16T00:26:46.544Z,5.71
2023-02-16T00:27:46.488Z,5.75
2023-02-16T00:28:46.444Z,5.72
2023-02-16T00:29:46.415Z,5.73
2023-02-16T00:30:46.418Z,5.65
2023-02-16T00:31:46.511Z,5.76
2023-02-16T00:32:46.293Z,5.72
2023-02-16T00:33:46.262Z,5.71
2023-02-16T00:34:46.230Z,5.76
2023-02-16T00:35:46.175Z,5.75
2023-02-16T00:36:46.141Z,5.61
2023-02-16T00:37:46.101Z,5.59
2023-02-16T00:38:46.058Z,5.56
2023-02-16T00:39:46.022Z,5.62
2023-02-16T00:40:45.991Z,5.65
2023-02-16T00:41:45.945Z,5.66
2023-02-16T00:42:45.899Z,5.62
2023-02-16T00:43:45.877Z,5.53
2023-02-16T00:44:45.834Z,5.51
2023-02-16T00:45:45.793Z,5.54
2023-02-16T00:46:45.756Z,5.46
2023-02-16T00:47:45.712Z,5.53
2023-02-16T00:48:45.667Z,5.47
2023-02-16T00:49:45.641Z,5.44
2023-02-16T00:50:45.605Z,5.47
2023-02-16T00:51:45.561Z,5.48
2023-02-16T00:52:45.518Z,5.48
2023-02-16T00:53:45.475Z,5.44
2023-02-16T00:54:45.432Z,5.51
2023-02-16T00:55:45.408Z,5.43
2023-02-16T00:56:45.358Z,5.46
2023-02-16T00:57:45.318Z,5.43
2023-02-16T00:58:45.279Z,5.36
2023-02-16T00:59:45.240Z,5.35
2023-02-16T01:00:45.203Z,5.46
2023-02-16T01:01:45.229Z,5.48
2023-02-16T01:02:45.124Z,5.43
2023-02-16T01:03:45.138Z,5.47
2023-02-16T01:04:45.065Z,5.41
2023-02-16T01:05:45.042Z,5.33
2023-02-16T01:06:44.966Z,5.46
2023-02-16T01:07:44.936Z,5.35
2023-02-16T01:08:44.895Z,5.38
2023-02-16T01:09:44.845Z,5.38
2023-02-16T01:10:44.821Z,5.33
2023-02-16T01:11:44.781Z,5.32
2023-02-16T01:12:44.729Z,5.38
2023-02-16T01:13:44.690Z,5.29
2023-02-16T01:14:44.648Z,5.25
2023-02-16T01:15:44.639Z,5.35
2023-02-16T01:16:44.570Z,5.30
2023-02-16T01:17:44.558Z,5.35
2023-02-16T01:18:44.487Z,5.30
2023-02-16T01:19:44.448Z,5.36
2023-02-16T01:20:44.421Z,5.30
2023-02-16T01:21:44.379Z,5.33
2023-02-16T01:22:44.331Z,5.29
2023-02-16T01:23:44.293Z,5.29
2023-02-16T01:24:44.256Z,5.35
2023-02-16T01:25:44.334Z,5.29
2023-02-16T01:26:44.198Z,5.33
2023-02-16T01:27:44.148Z,5.26
2023-02-16T01:28:44.105Z,5.26
2023-02-16T01:29:44.068Z,5.29
2023-02-16T01:30:44.022Z,5.29
2023-02-16T01:31:44.154Z,5.28
2023-02-16T01:32:43.944Z,5.28
2023-02-16T01:33:43.908Z,5.29
2023-02-16T01:34:43.862Z,5.33
2023-02-16T01:35:43.821Z,5.29
2023-02-16T01:36:43.800Z,5.28
2023-02-16T01:37:43.747Z,5.33
2023-02-16T01:38:43.710Z,5.32
2023-02-16T01:39:43.696Z,5.30
2023-02-16T01:40:43.628Z,5.32
2023-02-16T01:41:43.600Z,5.28
2023-02-16T01:42:43.558Z,5.30
2023-02-16T01:43:43.631Z,5.30
2023-02-16T01:44:43.472Z,5.30
2023-02-16T01:45:43.433Z,5.33
2023-02-16T01:46:43.497Z,5.30
2023-02-16T01:47:43.364Z,5.25
2023-02-16T01:48:43.323Z,5.25
2023-02-16T01:49:43.274Z,5.25
2023-02-16T01:50:43.242Z,5.30
2023-02-16T01:51:43.198Z,5.25
2023-02-16T01:52:43.204Z,5.25
2023-02-16T01:53:43.146Z,5.17
2023-02-16T01:54:43.098Z,5.29
2023-02-16T01:55:43.061Z,5.21
2023-02-16T01:56:43.012Z,5.20
2023-02-16T01:57:42.966Z,5.07
2023-02-16T01:58:42.920Z,5.21
2023-02-16T01:59:42.891Z,5.23
2023-02-16T02:00:42.844Z,5.18
2023-02-16T02:01:42.868Z,5.25
2023-02-16T02:02:42.844Z,5.14
2023-02-16T02:03:42.744Z,5.21
2023-02-16T02:04:42.689Z,5.14
2023-02-16T02:05:42.646Z,5.18
2023-02-16T02:06:42.618Z,5.10
2023-02-16T02:07:42.595Z,5.12
2023-02-16T02:08:42.543Z,5.17
2023-02-16T02:09:42.501Z,5.14
2023-02-16T02:10:42.449Z,5.15
2023-02-16T02:11:42.415Z,5.10
2023-02-16T02:12:42.401Z,5.12
2023-02-16T02:13:42.351Z,5.17
2023-02-16T02:14:42.294Z,5.08
2023-02-16T02:15:42.309Z,5.11
2023-02-16T02:16:42.222Z,5.12
2023-02-16T02:17:42.180Z,5.14
2023-02-16T02:18:42.137Z,5.08
2023-02-16T02:19:42.100Z,5.02
2023-02-16T02:20:42.064Z,5.05
2023-02-16T02:21:42.022Z,5.02
2023-02-16T02:22:41.976Z,5.00
2023-02-16T02:23:41.945Z,5.08
2023-02-16T02:24:41.903Z,5.07
2023-02-16T02:25:41.859Z,4.99
2023-02-16T02:26:41.823Z,5.04
2023-02-16T02:27:41.785Z,5.00
2023-02-16T02:28:41.740Z,5.00
2023-02-16T02:29:41.714Z,5.04
2023-02-16T02:30:41.667Z,4.97
2023-02-16T02:31:41.792Z,4.96
2023-02-16T02:32:41.583Z,4.99
2023-02-16T02:33:41.552Z,4.97
2023-02-16T02:34:41.511Z,4.99
2023-02-16T02:35:41.465Z,4.97
2023-02-16T02:36:41.426Z,4.97
2023-02-16T02:37:41.383Z,4.93
2023-02-16T02:38:41.348Z,4.96
2023-02-16T02:39:41.315Z,4.89
2023-02-16T02:40:41.271Z,4.93
2023-02-16T02:41:41.229Z,4.93
2023-02-16T02:42:41.185Z,4.92
2023-02-16T02:43:41.156Z,4.93
2023-02-16T02:44:41.113Z,4.96
2023-02-16T02:45:41.079Z,4.96
2023-02-16T02:46:41.083Z,4.94
2023-02-16T02:47:41.001Z,4.94
2023-02-16T02:48:40.968Z,4.90
2023-02-16T02:49:40.921Z,4.89
2023-02-16T02:50:40.873Z,4.93
2023-02-16T02:51:40.865Z,4.90
2023-02-16T02:52:40.797Z,4.90
2023-02-16T02:53:40.763Z,4.84
2023-02-16T02:54:40.720Z,4.87
2023-02-16T02:55:40.682Z,4.94
2023-02-16T02:56:40.639Z,4.89
2023-02-16T02:57:40.608Z,4.89
2023-02-16T02:58:40.558Z,4.89
2023-02-16T02:59:40.524Z,4.87
2023-02-16T03:00:40.517Z,4.82
2023-02-16T03:01:40.464Z,4.92
2023-02-16T03:02:40.401Z,4.78
2023-02-16T03:03:40.371Z,4.86
2023-02-16T03:04:40.331Z,4.75
2023-02-16T03:05:40.285Z,4.92
2023-02-16T03:06:40.243Z,4.89
2023-02-16T03:07:40.206Z,4.93
2023-02-16T03:08:40.166Z,4.78
2023-02-16T03:09:40.129Z,4.77
2023-02-16T03:10:40.086Z,4.86
2023-02-16T03:11:40.047Z,4.82
2023-02-16T03:12:40.016Z,4.87
2023-02-16T03:13:39.988Z,4.86
2023-02-16T03:14:39.925Z,4.82
2023-02-16T03:15:39.890Z,4.84
2023-02-16T03:16:39.957Z,4.90
2023-02-16T03:17:39.808Z,4.82
2023-02-16T03:18:39.767Z,4.87
2023-02-16T03:19:39.829Z,4.87
2023-02-16T03:20:39.692Z,4.86
2023-02-16T03:21:39.649Z,4.90
2023-02-16T03:22:39.611Z,4.86
2023-02-16T03:23:39.569Z,4.80
2023-02-16T03:24:39.539Z,4.84
2023-02-16T03:25:39.500Z,4.84
2023-02-16T03:26:39.451Z,4.78
2023-02-16T03:27:39.414Z,4.82
2023-02-16T03:28:39.373Z,4.86
2023-02-16T03:29:39.341Z,4.87
2023-02-16T03:30:39.361Z,4.82
2023-02-16T03:31:39.361Z,4.82
2023-02-16T03:32:39.213Z,4.90
2023-02-16T03:33:39.213Z,4.78
2023-02-16T03:34:39.131Z,4.78
2023-02-16T03:35:39.103Z,4.87
2023-02-16T03:36:39.055Z,4.78
2023-02-16T03:37:39.021Z,4.78
2023-02-16T03:38:38.977Z,4.82
2023-02-16T03:39:38.938Z,4.84
2023-02-16T03:40:38.897Z,4.86
2023-02-16T03:41:38.869Z,4.78
2023-02-16T03:42:38.811Z,4.78
2023-02-16T03:43:38.784Z,4.86
2023-02-16T03:44:38.744Z,4.82
2023-02-16T03:45:38.750Z,4.73
2023-02-16T03:46:38.665Z,4.82
2023-02-16T03:47:38.623Z,4.78
2023-02-16T03:48:38.576Z,4.77
2023-02-16T03:49:38.538Z,4.77
2023-02-16T03:50:38.518Z,4.82
2023-02-16T03:51:38.520Z,4.71
2023-02-16T03:52:38.427Z,4.84
2023-02-16T03:53:38.378Z,4.74
2023-02-16T03:54:38.345Z,4.75
2023-02-16T03:55:38.306Z,4.66
2023-02-16T03:56:38.278Z,4.77
2023-02-16T03:57:38.233Z,4.82
2023-02-16T03:58:38.184Z,4.68
2023-02-16T03:59:38.147Z,4.75
2023-02-16T04:00:38.112Z,4.70
2023-02-16T04:01:38.078Z,4.67
2023-02-16T04:02:38.027Z,4.82
2023-02-16T04:03:37.989Z,4.68
2023-02-16T04:04:37.952Z,4.70
2023-02-16T04:05:37.908Z,4.70
2023-02-16T04:06:37.874Z,4.71
2023-02-16T04:07:37.838Z,4.74
2023-02-16T04:08:37.795Z,4.74
2023-02-16T04:09:37.754Z,4.63
2023-02-16T04:10:37.711Z,4.68
2023-02-16T04:11:37.680Z,4.74
2023-02-16T04:12:37.660Z,4.70
2023-02-16T04:13:37.596Z,4.71
2023-02-16T04:14:37.561Z,4.68
2023-02-16T04:15:37.519Z,4.70
2023-02-16T04:16:37.499Z,4.68
2023-02-16T04:17:37.435Z,4.71
2023-02-16T04:18:37.395Z,4.68
2023-02-16T04:19:37.359Z,4.74
2023-02-16T04:20:37.326Z,4.68
2023-02-16T04:21:37.295Z,4.68
2023-02-16T04:22:37.248Z,4.74
2023-02-16T04:23:37.198Z,4.74
2023-02-16T04:24:37.164Z,4.71
2023-02-16T04:25:37.124Z,4.68
2023-02-16T04:26:37.079Z,4.71
2023-02-16T04:27:37.036Z,4.74
2023-02-16T04:28:37.009Z,4.70
2023-02-16T04:29:36.957Z,4.66
2023-02-16T04:30:37.117Z,4.59
2023-02-16T04:31:37.056Z,4.74
2023-02-16T04:32:36.841Z,4.75
2023-02-16T04:33:36.798Z,4.67
2023-02-16T04:34:36.766Z,4.59
2023-02-16T04:35:36.718Z,4.71
2023-02-16T04:36:36.688Z,4.68
2023-02-16T04:37:36.641Z,4.60
2023-02-16T04:38:36.608Z,4.74
2023-02-16T04:39:36.559Z,4.56
2023-02-16T04:40:36.517Z,4.58
2023-02-16T04:41:36.490Z,4.56
2023-02-16T04:42:36.441Z,4.53
2023-02-16T04:43:36.409Z,4.67
2023-02-16T04:44:36.366Z,4.60
2023-02-16T04:45:36.327Z,4.60
2023-02-16T04:46:36.280Z,4.58
2023-02-16T04:47:36.243Z,4.63
2023-02-16T04:48:36.238Z,4.56
2023-02-16T04:49:36.176Z,4.56
2023-02-16T04:50:36.120Z,4.67
2023-02-16T04:51:36.085Z,4.58
2023-02-16T04:52:36.044Z,4.56
2023-02-16T04:53:36.008Z,4.62
2023-02-16T04:54:35.975Z,4.67
2023-02-16T04:55:35.935Z,4.62
2023-02-16T04:56:35.884Z,4.66
2023-02-16T04:57:35.844Z,4.74
2023-02-16T04:58:35.804Z,4.74
2023-02-16T04:59:35.772Z,4.73
2023-02-16T05:00:36.694Z,4.70
2023-02-16T05:01:35.725Z,4.71
2023-02-16T05:02:35.651Z,4.77
2023-02-16T05:03:35.617Z,4.71
2023-02-16T05:04:35.629Z,4.68
2023-02-16T05:05:35.593Z,4.70
2023-02-16T05:06:35.488Z,4.67
2023-02-16T05:07:35.447Z,4.74
2023-02-16T05:08:35.410Z,4.77
2023-02-16T05:09:35.369Z,4.68
2023-02-16T05:10:35.330Z,4.70
2023-02-16T05:11:35.299Z,4.77
2023-02-16T05:12:35.286Z,4.78
2023-02-16T05:13:35.219Z,4.77
2023-02-16T05:14:35.197Z,4.67
2023-02-16T05:15:35.194Z,4.71
2023-02-16T05:16:35.093Z,4.78
2023-02-16T05:17:35.057Z,4.68
2023-02-16T05:18:35.021Z,4.66
2023-02-16T05:19:34.981Z,4.70
2023-02-16T05:20:34.940Z,4.75
2023-02-16T05:21:34.892Z,4.73
2023-02-16T05:22:34.849Z,4.66
2023-02-16T05:23:34.812Z,4.70
2023-02-16T05:24:34.786Z,4.67
2023-02-16T05:25:34.732Z,4.73
2023-02-16T05:26:34.699Z,4.71
2023-02-16T05:27:34.653Z,4.73
2023-02-16T05:28:34.656Z,4.77
2023-02-16T05:29:34.579Z,4.77
2023-02-16T05:30:34.630Z,4.84
2023-02-16T05:31:34.649Z,4.82
2023-02-16T05:32:34.469Z,4.66
2023-02-16T05:33:34.424Z,4.84
2023-02-16T05:34:34.378Z,4.73
2023-02-16T05:35:34.350Z,4.74
2023-02-16T05:36:34.307Z,4.67
2023-02-16T05:37:34.263Z,4.71
2023-02-16T05:38:34.256Z,4.70
2023-02-16T05:39:34.181Z,4.70
2023-02-16T05:40:34.149Z,4.73
2023-02-16T05:41:34.108Z,4.73
2023-02-16T05:42:34.072Z,4.68
2023-02-16T05:43:34.030Z,4.71
2023-02-16T05:44:33.985Z,4.73
2023-02-16T05:45:33.947Z,4.70
2023-02-16T05:46:34.076Z,4.68
2023-02-16T05:47:33.868Z,4.70
2023-02-16T05:48:33.834Z,4.82
2023-02-16T05:49:33.790Z,4.67
2023-02-16T05:50:33.754Z,4.75
2023-02-16T05:51:33.712Z,4.74
2023-02-16T05:52:33.680Z,4.78
2023-02-16T05:53:33.651Z,4.80
2023-02-16T05:54:33.595Z,4.84
2023-02-16T05:55:33.549Z,4.84
2023-02-16T05:56:33.514Z,4.75
2023-02-16T05:57:33.472Z,4.84
2023-02-16T05:58:33.434Z,4.86
2023-02-16T05:59:33.401Z,4.77
2023-02-16T06:00:33.361Z,4.77
2023-02-16T06:01:33.320Z,4.89
2023-02-16T06:02:33.322Z,4.78
2023-02-16T06:03:33.275Z,4.89
2023-02-16T06:04:33.203Z,4.87
2023-02-16T06:05:33.157Z,4.93
2023-02-16T06:06:33.114Z,4.92
2023-02-16T06:07:33.076Z,4.93
2023-02-16T06:08:33.041Z,4.96
2023-02-16T06:09:33.001Z,4.96
2023-02-16T06:10:32.969Z,4.99
2023-02-16T06:11:32.920Z,4.96
2023-02-16T06:12:32.884Z,5.00
2023-02-16T06:13:32.859Z,5.08
2023-02-16T06:14:32.829Z,4.99
2023-02-16T06:15:32.786Z,5.08
2023-02-16T06:16:32.725Z,5.05
2023-02-16T06:17:32.680Z,5.14
2023-02-16T06:18:32.684Z,5.15
2023-02-16T06:19:32.610Z,5.14
2023-02-16T06:20:32.563Z,5.10
2023-02-16T06:21:32.533Z,5.21
2023-02-16T06:22:32.488Z,5.20
2023-02-16T06:23:32.443Z,5.23
2023-02-16T06:24:32.419Z,5.14
2023-02-16T06:25:32.384Z,5.20
2023-02-16T06:26:32.328Z,5.21
2023-02-16T06:27:32.287Z,5.26
2023-02-16T06:28:32.247Z,5.30
2023-02-16T06:29:32.237Z,5.30
2023-02-16T06:30:32.226Z,5.33
2023-02-16T06:31:34.527Z,5.29
2023-02-16T06:32:32.153Z,5.30
2023-02-16T06:33:32.058Z,5.32
2023-02-16T06:34:32.011Z,5.36
2023-02-16T06:35:32.005Z,5.28
2023-02-16T06:36:31.939Z,5.32
2023-02-16T06:37:31.895Z,5.36
2023-02-16T06:38:31.852Z,5.48
2023-02-16T06:39:31.859Z,5.39
2023-02-16T06:40:31.789Z,5.48
2023-02-16T06:41:32.102Z,5.39
2023-02-16T06:42:31.698Z,5.47
2023-02-16T06:43:31.737Z,5.41
2023-02-16T06:44:31.622Z,5.46
2023-02-16T06:45:31.582Z,5.44
2023-02-16T06:46:31.650Z,5.48
2023-02-16T06:47:31.516Z,5.47
2023-02-16T06:48:31.460Z,5.50
2023-02-16T06:49:31.447Z,5.48
2023-02-16T06:50:31.382Z,5.53
2023-02-16T06:51:31.352Z,5.56
2023-02-16T06:52:31.301Z,5.51
2023-02-16T06:53:31.272Z,5.61
2023-02-16T06:54:31.285Z,5.61
2023-02-16T06:55:31.189Z,5.56
2023-02-16T06:56:31.148Z,5.51
2023-02-16T06:57:31.109Z,5.54
2023-02-16T06:58:31.065Z,5.56
2023-02-16T06:59:31.025Z,5.65
2023-02-16T07:00:31.155Z,5.62
2023-02-16T07:01:30.961Z,5.64
2023-02-16T07:02:30.908Z,5.68
2023-02-16T07:03:31.036Z,5.68
2023-02-16T07:04:30.840Z,5.68
2023-02-16T07:05:30.792Z,5.72
2023-02-16T07:06:30.757Z,5.71
2023-02-16T07:07:30.719Z,5.76
2023-02-16T07:08:30.681Z,5.79
2023-02-16T07:09:30.642Z,5.86
2023-02-16T07:10:40.358Z,5.83
2023-02-16T07:11:30.560Z,5.82
2023-02-16T07:12:30.519Z,5.86
2023-02-16T07:13:30.483Z,5.89
2023-02-16T07:14:30.437Z,5.84
2023-02-16T07:15:30.409Z,5.86
2023-02-16T07:16:30.454Z,5.93
2023-02-16T07:17:30.323Z,5.97
2023-02-16T07:18:30.285Z,6.05
2023-02-16T07:19:30.256Z,5.99
2023-02-16T07:20:30.212Z,6.04
2023-02-16T07:21:30.167Z,5.97
2023-02-16T07:22:30.135Z,6.02
2023-02-16T07:23:30.089Z,6.02
2023-02-16T07:24:30.054Z,6.01
2023-02-16T07:25:30.016Z,6.01
2023-02-16T07:26:29.988Z,6.04
2023-02-16T07:27:29.932Z,6.02
2023-02-16T07:28:29.902Z,6.19
2023-02-16T07:29:29.873Z,6.11
2023-02-16T07:30:29.932Z,6.16
2023-02-16T07:31:29.913Z,6.14
2023-02-16T07:32:29.843Z,6.17
2023-02-16T07:33:29.699Z,6.09
2023-02-16T07:34:29.659Z,6.16
2023-02-16T07:35:29.651Z,6.12
2023-02-16T07:36:29.588Z,6.17
2023-02-16T07:37:29.544Z,6.26
2023-02-16T07:38:29.509Z,6.30
2023-02-16T07:39:29.464Z,6.24
2023-02-16T07:40:29.439Z,6.31
2023-02-16T07:41:29.396Z,6.27
2023-02-16T07:42:29.352Z,6.45
2023-02-16T07:43:29.309Z,6.44
2023-02-16T07:44:29.270Z,6.48
2023-02-16T07:45:29.297Z,6.48
2023-02-16T07:46:30.483Z,6.49
2023-02-16T07:47:29.158Z,6.54
2023-02-16T07:48:29.132Z,6.56
2023-02-16T07:49:29.076Z,6.62
2023-02-16T07:50:29.048Z,6.64
2023-02-16T07:51:29.032Z,6.70
2023-02-16T07:52:28.967Z,6.75
2023-02-16T07:53:28.922Z,6.75
2023-02-16T07:54:28.887Z,6.74
2023-02-16T07:55:28.878Z,6.87
2023-02-16T07:56:28.806Z,6.87
2023-02-16T07:57:28.766Z,6.85
2023-02-16T07:58:28.801Z,7.02
2023-02-16T07:59:28.727Z,6.99
2023-02-16T08:00:28.654Z,7.10
2023-02-16T08:01:28.611Z,6.97
2023-02-16T08:02:28.696Z,7.03
2023-02-16T08:03:28.571Z,6.99
2023-02-16T08:04:28.500Z,7.02
2023-02-16T08:05:28.457Z,7.17
2023-02-16T08:06:28.431Z,7.11
2023-02-16T08:07:28.384Z,7.14
2023-02-16T08:08:28.347Z,7.24
2023-02-16T08:09:28.306Z,7.33
2023-02-16T08:10:28.273Z,7.38
2023-02-16T08:11:28.238Z,7.33
2023-02-16T08:12:28.196Z,7.33
2023-02-16T08:13:28.154Z,7.38
2023-02-16T08:14:28.119Z,7.48
2023-02-16T08:15:28.080Z,7.36
2023-02-16T08:16:28.153Z,7.42
2023-02-16T08:17:28.006Z,7.48
2023-02-16T08:18:27.998Z,7.47
2023-02-16T08:19:27.926Z,7.56
2023-02-16T08:20:46.069Z,7.61
2023-02-16T08:21:27.854Z,7.61
2023-02-16T08:22:27.813Z,7.51
2023-02-16T08:23:27.789Z,7.67
2023-02-16T08:24:27.737Z,7.72
2023-02-16T08:25:27.727Z,7.77
2023-02-16T08:26:27.667Z,7.82
2023-02-16T08:27:27.623Z,7.85
2023-02-16T08:28:27.591Z,7.90
2023-02-16T08:29:27.555Z,7.97
2023-02-16T08:30:27.547Z,8.05
2023-02-16T08:31:27.587Z,8.05
2023-02-16T08:32:27.536Z,8.13
2023-02-16T08:33:27.399Z,8.05
2023-02-16T08:34:27.417Z,8.19
2023-02-16T08:35:27.319Z,8.15
2023-02-16T08:36:27.288Z,8.16
2023-02-16T08:37:27.250Z,8.16
2023-02-16T08:38:27.212Z,8.23
2023-02-16T08:39:27.226Z,8.28
2023-02-16T08:40:27.144Z,8.28
2023-02-16T08:41:27.099Z,8.26
2023-02-16T08:42:27.057Z,8.23
2023-02-16T08:43:27.029Z,8.27
2023-02-16T08:44:27.077Z,8.37
2023-02-16T08:45:26.949Z,8.34
2023-02-16T08:46:26.924Z,8.33
2023-02-16T08:47:26.867Z,8.36
2023-02-16T08:48:26.846Z,8.42
2023-02-16T08:49:26.792Z,8.33
2023-02-16T08:50:26.765Z,8.42
2023-02-16T08:51:26.714Z,8.45
2023-02-16T08:52:26.679Z,8.44
2023-02-16T08:53:26.745Z,8.42
2023-02-16T08:54:26.653Z,8.53
2023-02-16T08:55:26.580Z,8.52
2023-02-16T08:56:26.540Z,8.51
2023-02-16T08:57:26.492Z,8.61
2023-02-16T08:58:26.457Z,8.56
2023-02-16T08:59:28.485Z,8.53
2023-02-16T09:00:26.379Z,8.64
2023-02-16T09:01:26.375Z,8.61
2023-02-16T09:02:26.342Z,8.58
2023-02-16T09:03:26.274Z,8.66
2023-02-16T09:04:26.262Z,8.67
2023-02-16T09:05:26.198Z,8.74
2023-02-16T09:06:26.152Z,8.84
2023-02-16T09:07:26.128Z,8.85
2023-02-16T09:08:26.079Z,8.95
2023-02-16T09:09:26.051Z,9.00
2023-02-16T09:10:26.006Z,9.02
2023-02-16T09:11:25.975Z,9.04
2023-02-16T09:12:25.935Z,9.03
2023-02-16T09:13:25.898Z,9.18
2023-02-16T09:14:25.868Z,9.19
2023-02-16T09:15:25.822Z,9.28
2023-02-16T09:16:25.794Z,9.31
2023-02-16T09:17:25.744Z,9.37
2023-02-16T09:18:25.714Z,9.43
2023-02-16T09:19:25.668Z,9.44
2023-02-16T09:20:25.636Z,9.44
2023-02-16T09:21:25.700Z,9.56
2023-02-16T09:22:25.569Z,9.59
2023-02-16T09:23:25.522Z,9.72
2023-02-16T09:24:25.486Z,9.76
2023-02-16T09:25:25.481Z,9.84
2023-02-16T09:26:25.414Z,9.98
2023-02-16T09:27:40.003Z,10.05
2023-02-16T09:28:25.359Z,10.07
2023-02-16T09:29:25.300Z,10.19
2023-02-16T09:30:25.345Z,10.20
2023-02-16T09:31:25.384Z,10.31
2023-02-16T09:32:25.191Z,10.40
2023-02-16T09:33:25.153Z,10.46
2023-02-16T09:34:27.527Z,10.54
2023-02-16T09:35:25.089Z,10.61
2023-02-16T09:36:25.052Z,10.67
2023-02-16T09:37:25.014Z,10.61
2023-02-16T09:38:24.972Z,10.69
2023-02-16T09:39:24.940Z,10.79
2023-02-16T09:40:24.898Z,10.86
2023-02-16T09:41:24.861Z,10.92
2023-02-16T09:42:24.826Z,10.92
2023-02-16T09:43:24.799Z,10.96
2023-02-16T09:44:24.752Z,11.08
2023-02-16T09:45:24.725Z,11.05
2023-02-16T09:46:24.695Z,11.07
2023-02-16T09:47:24.646Z,11.14
2023-02-16T09:48:24.625Z,11.18
2023-02-16T09:49:24.583Z,11.18
2023-02-16T09:50:50.422Z,11.17
2023-02-16T09:51:33.854Z,11.27
2023-02-16T09:52:24.464Z,11.29
2023-02-16T09:53:24.448Z,11.27
2023-02-16T09:54:24.402Z,11.25
2023-02-16T09:55:24.358Z,11.35
2023-02-16T09:56:24.327Z,11.45
2023-02-16T09:57:24.309Z,11.44
2023-02-16T09:58:24.257Z,11.37
2023-02-16T09:59:24.237Z,11.43
2023-02-16T10:00:24.182Z,11.48
2023-02-16T10:01:24.150Z,11.52
2023-02-16T10:02:24.134Z,11.48
2023-02-16T10:03:24.074Z,11.55
2023-02-16T10:04:24.041Z,11.66
2023-02-16T10:05:24.007Z,11.62
2023-02-16T10:06:24.004Z,11.63
2023-02-16T10:07:23.930Z,11.65
2023-02-16T10:08:23.895Z,11.72
2023-02-16T10:09:23.854Z,11.73
2023-02-16T10:10:23.828Z,11.66
2023-02-16T10:11:23.830Z,11.65
2023-02-16T10:12:23.757Z,11.69
2023-02-16T10:13:23.724Z,11.81
2023-02-16T10:14:23.678Z,11.78
2023-02-16T10:15:23.681Z,11.84
2023-02-16T10:16:23.612Z,11.81
2023-02-16T10:17:23.584Z,11.91
2023-02-16T10:18:23.543Z,11.90
2023-02-16T10:19:23.521Z,11.86
2023-02-16T10:20:23.470Z,11.83
2023-02-16T10:21:23.440Z,11.88
2023-02-16T10:22:23.400Z,11.95
2023-02-16T10:23:23.372Z,11.91
2023-02-16T10:24:23.330Z,12.00
2023-02-16T10:25:23.289Z,11.86
2023-02-16T10:26:23.258Z,12.02
2023-02-16T10:27:23.222Z,11.97
2023-02-16T10:28:23.205Z,11.95
2023-02-16T10:29:23.179Z,12.07
2023-02-16T10:30:23.153Z,12.04
2023-02-16T10:31:23.188Z,12.06
2023-02-16T10:32:23.050Z,12.06
2023-02-16T10:33:23.010Z,12.07
2023-02-16T10:34:23.388Z,12.13
2023-02-16T10:35:22.944Z,12.20
2023-02-16T10:36:22.908Z,12.24
2023-02-16T10:37:22.873Z,12.24
2023-02-16T10:38:22.844Z,12.27
2023-02-16T10:39:22.808Z,12.31
2023-02-16T10:40:23.490Z,12.42
2023-02-16T10:41:22.734Z,12.36
2023-02-16T10:42:22.713Z,12.55
2023-02-16T10:43:22.699Z,12.54
2023-02-16T10:44:22.634Z,12.54
2023-02-16T10:45:22.598Z,12.65
2023-02-16T10:46:22.689Z,12.61
2023-02-16T10:47:22.641Z,12.65
2023-02-16T10:48:22.496Z,12.73
2023-02-16T10:49:22.468Z,12.73
2023-02-16T10:50:22.432Z,12.80
2023-02-16T10:51:23.165Z,12.79
2023-02-16T10:52:22.357Z,12.87
2023-02-16T10:53:22.331Z,12.91
2023-02-16T10:54:22.284Z,13.00
2023-02-16T10:55:22.248Z,13.05
2023-02-16T10:56:22.225Z,12.94
2023-02-16T10:57:22.181Z,12.94
2023-02-16T10:58:22.713Z,13.09
2023-02-16T10:59:22.120Z,12.94
2023-02-16T11:00:22.083Z,12.97
2023-02-16T11:01:22.070Z,13.00
2023-02-16T11:02:22.008Z,12.98
2023-02-16T11:03:22.026Z,12.87
2023-02-16T11:04:23.053Z,12.98
2023-02-16T11:05:21.907Z,13.03
2023-02-16T11:06:21.875Z,12.95
2023-02-16T11:07:21.843Z,12.93
2023-02-16T11:08:21.817Z,13.04
2023-02-16T11:09:21.810Z,13.05
2023-02-16T11:10:21.729Z,13.00
2023-02-16T11:11:21.695Z,13.00
2023-02-16T11:12:21.681Z,13.05
2023-02-16T11:13:21.626Z,13.08
2023-02-16T11:14:21.592Z,13.05
2023-02-16T11:15:21.553Z,12.97
2023-02-16T11:16:21.544Z,12.95
2023-02-16T11:17:21.489Z,13.05
2023-02-16T11:18:21.488Z,13.09
2023-02-16T11:19:21.425Z,13.00
2023-02-16T11:20:21.388Z,13.11
2023-02-16T11:21:21.348Z,13.00
2023-02-16T11:22:21.319Z,13.03
2023-02-16T11:23:21.280Z,13.08
2023-02-16T11:24:21.246Z,13.05
2023-02-16T11:25:21.226Z,13.15
2023-02-16T11:26:21.183Z,13.12
2023-02-16T11:27:21.147Z,13.03
2023-02-16T11:28:21.117Z,12.82
2023-02-16T11:29:21.093Z,12.76
2023-02-16T11:30:21.084Z,12.90
2023-02-16T11:31:21.130Z,13.03
2023-02-16T11:32:21.017Z,13.05
2023-02-16T11:33:20.938Z,13.03
2023-02-16T11:34:20.901Z,13.13
2023-02-16T11:35:20.890Z,13.11
2023-02-16T11:36:20.836Z,13.15
2023-02-16T11:37:20.826Z,13.18
2023-02-16T11:38:20.763Z,13.18
2023-02-16T11:39:20.734Z,13.30
2023-02-16T11:40:20.698Z,13.33
2023-02-16T11:41:20.664Z,13.30
2023-02-16T11:42:20.634Z,13.37
2023-02-16T11:43:20.601Z,13.41
2023-02-16T11:44:20.555Z,13.44
2023-02-16T11:45:20.519Z,13.38
2023-02-16T11:46:20.526Z,13.42
2023-02-16T11:47:20.448Z,13.44
2023-02-16T11:48:20.415Z,13.46
2023-02-16T11:49:20.394Z,13.47
2023-02-16T11:50:20.347Z,13.44
2023-02-16T11:51:20.959Z,13.42
2023-02-16T11:52:20.275Z,13.41
2023-02-16T11:53:20.242Z,13.42
2023-02-16T11:54:20.237Z,13.39
2023-02-16T11:55:20.251Z,13.46
2023-02-16T11:56:20.136Z,13.42
2023-02-16T11:57:20.102Z,13.38
2023-02-16T11:58:20.080Z,13.35
2023-02-16T11:59:20.034Z,13.41
2023-02-16T12:00:20.011Z,13.35
2023-02-16T12:01:19.965Z,13.42
2023-02-16T12:02:19.930Z,13.33
2023-02-16T12:03:19.898Z,13.39
2023-02-16T12:04:19.868Z,13.42
2023-02-16T12:05:19.913Z,13.31
2023-02-16T12:06:19.800Z,13.33
2023-02-16T12:07:19.761Z,13.33
2023-02-16T12:08:19.755Z,13.33
2023-02-16T12:09:19.696Z,13.39
2023-02-16T12:10:19.659Z,13.30
2023-02-16T12:11:19.628Z,13.30
2023-02-16T12:12:19.592Z,13.38
2023-02-16T12:13:19.559Z,13.39
2023-02-16T12:14:19.530Z,13.38
2023-02-16T12:15:19.485Z,13.39
2023-02-16T12:16:19.471Z,13.44
2023-02-16T12:17:19.417Z,13.44
2023-02-16T12:18:19.387Z,13.42
2023-02-16T12:19:19.355Z,13.47
2023-02-16T12:20:19.315Z,13.47
2023-02-16T12:21:19.972Z,13.47
2023-02-16T12:22:19.259Z,13.46
2023-02-16T12:23:19.227Z,13.54
2023-02-16T12:24:19.196Z,13.53
2023-02-16T12:25:19.157Z,13.52
2023-02-16T12:26:19.115Z,13.52
2023-02-16T12:27:19.131Z,13.54
2023-02-16T12:28:19.048Z,13.56
2023-02-16T12:29:19.009Z,13.53
2023-02-16T12:30:19.000Z,13.54
2023-02-16T12:31:19.079Z,13.47
2023-02-16T12:32:18.903Z,13.49
2023-02-16T12:33:18.869Z,13.54
2023-02-16T12:34:19.467Z,13.49
2023-02-16T12:35:19.365Z,13.46
2023-02-16T12:36:18.760Z,13.46
2023-02-16T12:37:18.731Z,13.46
2023-02-16T12:38:18.717Z,13.49
2023-02-16T12:39:18.663Z,13.52
2023-02-16T12:40:18.636Z,13.52
2023-02-16T12:41:18.604Z,13.50
2023-02-16T12:42:18.584Z,13.56
2023-02-16T12:43:18.531Z,13.49
2023-02-16T12:44:18.486Z,13.53
2023-02-16T12:45:18.462Z,13.53
2023-02-16T12:46:18.429Z,13.57
2023-02-16T12:47:18.388Z,13.62
2023-02-16T12:48:18.357Z,13.65
2023-02-16T12:49:18.332Z,13.63
2023-02-16T12:50:18.289Z,13.62
2023-02-16T12:51:19.001Z,13.65
2023-02-16T12:52:18.218Z,13.59
2023-02-16T12:53:18.187Z,13.65
2023-02-16T12:54:18.151Z,13.62
2023-02-16T12:55:18.123Z,13.68
2023-02-16T12:56:18.108Z,13.65
2023-02-16T12:57:18.048Z,13.71
2023-02-16T12:58:18.008Z,13.75
2023-02-16T12:59:17.981Z,13.75
2023-02-16T13:00:17.946Z,13.85
2023-02-16T13:01:17.969Z,13.87
2023-02-16T13:02:17.889Z,13.95
2023-02-16T13:03:17.878Z,13.95
2023-02-16T13:04:17.806Z,13.92
2023-02-16T13:05:17.777Z,13.93
2023-02-16T13:06:17.743Z,13.79
2023-02-16T13:07:17.706Z,13.85
2023-02-16T13:08:17.678Z,13.90
2023-02-16T13:09:17.643Z,13.89
2023-02-16T13:10:17.607Z,13.93